To NAV CANADA Home Page Login to a new session Search on AWWS site Feedback and Comments Disclaimer Vers la page française équivalente Tips FAQ What's new on the site To the Forecasts and Observations / NOTAM section To "File a Flight Plan" website Publications and other links Update of the User's profile FIC Telephone Numbers My Weather Data Folder Route Weather Data Regional Weather Data Local Weather Data To the Forecasts and Observations / NOTAM section
Request Generated 04/21/2015 at 09:45:58 UTC . Weather information available at that time is displayed.

METAR/TAF

KITCHENER/WATERLOO/ON    (show WxCam)

METAR CYKF 210900Z AUTO 24016G23KT 9SM FEW023 BKN034 OVC075 06/02
A2954 RMK SLP004=
SPECI CYKF 210843Z AUTO 23009KT 9SM SCT021 BKN034 OVC075 06/03 A2954
RMK SLP004=
SPECI CYKF 210810Z AUTO 23011G16KT 9SM BKN023 BKN036 BKN048 OVC075
06/03 A2954 RMK SLP004=
SPECI CYKF 210801Z AUTO 22011KT 9SM SCT023 BKN036 BKN048 OVC075 06/03
A2954 RMK SLP004=
METAR CYKF 210800Z AUTO 22011KT 9SM -RA FEW025 BKN036 BKN048 OVC074
06/03 A2954 RMK SLP004=
SPECI CYKF 210737Z AUTO 24010KT 9SM -RA BKN036 OVC050 06/03 A2954 RMK
SLP004=
METAR CYKF 210700Z AUTO 24007KT 9SM SCT023 OVC032 06/03 A2954 RMK
SLP007=

TAF CYKF 210938Z 2110/2122 24015G25KT P6SM BKN030 TEMPO 2110/2116
P6SM -SHRA BKN020
FM211600 24018G28KT P6SM BKN030 TEMPO 2116/2122 5SM -SHRA BR
BKN020
RMK FCST BASED ON AUTO OBS. NXT FCST BY 211400Z=
Your time UTC time
Weather data provided by Environment Canada and NAV CANADA